sensor_id;sensor_type;location;lat;lon;timestamp;P1;durP1;ratioP1;P2;durP2;ratioP2
74674;SDS011;63200;48.810;12.352;2024-01-06T00:01:14;18.23;;;10.07;;
74674;SDS011;63200;48.810;12.352;2024-01-06T00:03:40;16.92;;;9.85;;
74674;SDS011;63200;48.810;12.352;2024-01-06T00:06:05;15.55;;;9.30;;
74674;SDS011;63200;48.810;12.352;2024-01-06T00:08:30;15.50;;;9.88;;
74674;SDS011;63200;48.810;12.352;2024-01-06T00:10:56;15.48;;;9.25;;
74674;SDS011;63200;48.810;12.352;2024-01-06T00:13:21;15.00;;;9.82;;
74674;SDS011;63200;48.810;12.352;2024-01-06T00:15:46;23.10;;;10.55;;
74674;SDS011;63200;48.810;12.352;2024-01-06T00:18:12;14.10;;;9.85;;
74674;SDS011;63200;48.810;12.352;2024-01-06T00:20:37;16.90;;;9.20;;
74674;SDS011;63200;48.810;12.352;2024-01-06T00:23:03;15.40;;;9.93;;
74674;SDS011;63200;48.810;12.352;2024-01-06T00:25:28;16.77;;;10.00;;
74674;SDS011;63200;48.810;12.352;2024-01-06T00:27:54;12.55;;;9.15;;
74674;SDS011;63200;48.810;12.352;2024-01-06T00:30:19;22.50;;;10.60;;
74674;SDS011;63200;48.810;12.352;2024-01-06T00:32:44;14.20;;;8.73;;
74674;SDS011;63200;48.810;12.352;2024-01-06T00:35:09;17.52;;;9.88;;
74674;SDS011;63200;48.810;12.352;2024-01-06T00:37:35;16.48;;;10.13;;
74674;SDS011;63200;48.810;12.352;2024-01-06T00:40:00;18.92;;;10.50;;
74674;SDS011;63200;48.810;12.352;2024-01-06T00:42:25;14.75;;;9.15;;
74674;SDS011;63200;48.810;12.352;2024-01-06T00:44:51;16.48;;;9.40;;
74674;SDS011;63200;48.810;12.352;2024-01-06T00:47:16;15.73;;;9.55;;
74674;SDS011;63200;48.810;12.352;2024-01-06T00:49:41;13.75;;;9.13;;
74674;SDS011;63200;48.810;12.352;2024-01-06T00:52:07;13.95;;;9.30;;
74674;SDS011;63200;48.810;12.352;2024-01-06T00:54:32;23.67;;;9.75;;
74674;SDS011;63200;48.810;12.352;2024-01-06T00:56:57;15.65;;;9.43;;
74674;SDS011;63200;48.810;12.352;2024-01-06T00:59:22;14.60;;;9.00;;
74674;SDS011;63200;48.810;12.352;2024-01-06T01:01:48;16.38;;;9.50;;
74674;SDS011;63200;48.810;12.352;2024-01-06T01:04:13;15.60;;;10.00;;
74674;SDS011;63200;48.810;12.352;2024-01-06T01:06:38;16.10;;;9.60;;
74674;SDS011;63200;48.810;12.352;2024-01-06T01:09:04;15.13;;;9.60;;
74674;SDS011;63200;48.810;12.352;2024-01-06T01:11:29;14.90;;;9.43;;
74674;SDS011;63200;48.810;12.352;2024-01-06T01:13:55;16.92;;;9.02;;
74674;SDS011;63200;48.810;12.352;2024-01-06T01:16:20;13.40;;;9.23;;
74674;SDS011;63200;48.810;12.352;2024-01-06T01:18:45;14.38;;;8.55;;
74674;SDS011;63200;48.810;12.352;2024-01-06T01:21:11;17.90;;;10.60;;
74674;SDS011;63200;48.810;12.352;2024-01-06T01:23:36;20.55;;;10.15;;
74674;SDS011;63200;48.810;12.352;2024-01-06T01:26:01;18.85;;;10.40;;
74674;SDS011;63200;48.810;12.352;2024-01-06T01:28:27;16.55;;;10.60;;
74674;SDS011;63200;48.810;12.352;2024-01-06T01:30:52;20.45;;;11.45;;
74674;SDS011;63200;48.810;12.352;2024-01-06T01:33:17;19.30;;;10.98;;
74674;SDS011;63200;48.810;12.352;2024-01-06T01:35:43;18.83;;;10.68;;
74674;SDS011;63200;48.810;12.352;2024-01-06T01:38:08;18.77;;;10.77;;
74674;SDS011;63200;48.810;12.352;2024-01-06T01:40:33;17.80;;;11.50;;
74674;SDS011;63200;48.810;12.352;2024-01-06T01:42:59;18.52;;;10.65;;
74674;SDS011;63200;48.810;12.352;2024-01-06T01:45:24;20.50;;;11.43;;
74674;SDS011;63200;48.810;12.352;2024-01-06T01:47:49;17.73;;;11.23;;
74674;SDS011;63200;48.810;12.352;2024-01-06T01:50:15;16.30;;;11.20;;
74674;SDS011;63200;48.810;12.352;2024-01-06T01:52:41;28.35;;;13.02;;
74674;SDS011;63200;48.810;12.352;2024-01-06T01:55:07;40.15;;;15.82;;
74674;SDS011;63200;48.810;12.352;2024-01-06T01:57:33;31.58;;;14.98;;
74674;SDS011;63200;48.810;12.352;2024-01-06T01:59:59;26.17;;;13.23;;
74674;SDS011;63200;48.810;12.352;2024-01-06T02:02:26;19.77;;;12.50;;
74674;SDS011;63200;48.810;12.352;2024-01-06T02:04:53;19.73;;;12.95;;
74674;SDS011;63200;48.810;12.352;2024-01-06T02:07:19;18.42;;;11.27;;
74674;SDS011;63200;48.810;12.352;2024-01-06T02:09:45;19.25;;;12.32;;
74674;SDS011;63200;48.810;12.352;2024-01-06T02:12:10;17.83;;;11.50;;
74674;SDS011;63200;48.810;12.352;2024-01-06T02:14:35;19.58;;;11.60;;
74674;SDS011;63200;48.810;12.352;2024-01-06T02:17:00;17.98;;;11.68;;
74674;SDS011;63200;48.810;12.352;2024-01-06T02:19:26;20.30;;;11.65;;
74674;SDS011;63200;48.810;12.352;2024-01-06T02:21:54;16.52;;;11.50;;
74674;SDS011;63200;48.810;12.352;2024-01-06T02:24:20;17.58;;;11.18;;
74674;SDS011;63200;48.810;12.352;2024-01-06T02:26:46;19.33;;;12.27;;
74674;SDS011;63200;48.810;12.352;2024-01-06T02:29:11;16.40;;;10.23;;
74674;SDS011;63200;48.810;12.352;2024-01-06T02:31:37;17.77;;;11.38;;
74674;SDS011;63200;48.810;12.352;2024-01-06T02:34:02;18.45;;;11.73;;
74674;SDS011;63200;48.810;12.352;2024-01-06T02:36:27;16.55;;;10.95;;
74674;SDS011;63200;48.810;12.352;2024-01-06T02:38:53;17.33;;;11.32;;
74674;SDS011;63200;48.810;12.352;2024-01-06T02:41:18;16.20;;;10.82;;
74674;SDS011;63200;48.810;12.352;2024-01-06T02:43:43;18.10;;;11.32;;
74674;SDS011;63200;48.810;12.352;2024-01-06T02:46:08;18.83;;;11.15;;
74674;SDS011;63200;48.810;12.352;2024-01-06T02:48:34;27.63;;;12.93;;
74674;SDS011;63200;48.810;12.352;2024-01-06T02:50:59;16.85;;;10.93;;
74674;SDS011;63200;48.810;12.352;2024-01-06T02:53:24;22.27;;;11.65;;
74674;SDS011;63200;48.810;12.352;2024-01-06T02:55:50;19.80;;;11.32;;
74674;SDS011;63200;48.810;12.352;2024-01-06T02:58:15;21.48;;;11.27;;
74674;SDS011;63200;48.810;12.352;2024-01-06T03:00:40;25.75;;;12.50;;
74674;SDS011;63200;48.810;12.352;2024-01-06T03:03:05;22.83;;;12.13;;
74674;SDS011;63200;48.810;12.352;2024-01-06T03:05:31;18.45;;;10.98;;
74674;SDS011;63200;48.810;12.352;2024-01-06T03:07:56;21.52;;;11.35;;
74674;SDS011;63200;48.810;12.352;2024-01-06T03:10:22;22.88;;;12.13;;
74674;SDS011;63200;48.810;12.352;2024-01-06T03:12:47;23.73;;;12.05;;
74674;SDS011;63200;48.810;12.352;2024-01-06T03:15:12;26.08;;;12.18;;
74674;SDS011;63200;48.810;12.352;2024-01-06T03:17:38;19.42;;;11.10;;
74674;SDS011;63200;48.810;12.352;2024-01-06T03:20:03;16.55;;;10.50;;
74674;SDS011;63200;48.810;12.352;2024-01-06T03:22:29;20.88;;;11.07;;
74674;SDS011;63200;48.810;12.352;2024-01-06T03:24:54;17.35;;;11.27;;
74674;SDS011;63200;48.810;12.352;2024-01-06T03:27:20;14.25;;;10.90;;
74674;SDS011;63200;48.810;12.352;2024-01-06T03:29:45;16.00;;;10.38;;
74674;SDS011;63200;48.810;12.352;2024-01-06T03:32:11;16.55;;;10.80;;
74674;SDS011;63200;48.810;12.352;2024-01-06T03:34:36;16.60;;;10.57;;
74674;SDS011;63200;48.810;12.352;2024-01-06T03:37:02;15.43;;;10.27;;
74674;SDS011;63200;48.810;12.352;2024-01-06T03:39:27;16.67;;;10.60;;
74674;SDS011;63200;48.810;12.352;2024-01-06T03:41:52;15.95;;;11.55;;
74674;SDS011;63200;48.810;12.352;2024-01-06T03:44:18;16.65;;;10.10;;
74674;SDS011;63200;48.810;12.352;2024-01-06T03:46:43;16.75;;;10.40;;
74674;SDS011;63200;48.810;12.352;2024-01-06T03:49:08;17.52;;;11.13;;
74674;SDS011;63200;48.810;12.352;2024-01-06T03:51:34;17.80;;;11.65;;
74674;SDS011;63200;48.810;12.352;2024-01-06T03:53:59;16.92;;;10.15;;
74674;SDS011;63200;48.810;12.352;2024-01-06T03:56:24;16.08;;;10.82;;
74674;SDS011;63200;48.810;12.352;2024-01-06T03:58:50;17.23;;;10.93;;
74674;SDS011;63200;48.810;12.352;2024-01-06T04:01:15;15.85;;;10.88;;
74674;SDS011;63200;48.810;12.352;2024-01-06T04:03:40;15.88;;;10.32;;
74674;SDS011;63200;48.810;12.352;2024-01-06T04:06:06;15.70;;;10.52;;
74674;SDS011;63200;48.810;12.352;2024-01-06T04:08:31;17.70;;;10.85;;
74674;SDS011;63200;48.810;12.352;2024-01-06T04:10:56;15.75;;;10.88;;
74674;SDS011;63200;48.810;12.352;2024-01-06T04:13:22;15.10;;;9.82;;
74674;SDS011;63200;48.810;12.352;2024-01-06T04:15:49;16.25;;;11.07;;
74674;SDS011;63200;48.810;12.352;2024-01-06T04:18:15;14.85;;;10.85;;
74674;SDS011;63200;48.810;12.352;2024-01-06T04:20:40;15.15;;;10.50;;
74674;SDS011;63200;48.810;12.352;2024-01-06T04:23:05;15.18;;;10.10;;
74674;SDS011;63200;48.810;12.352;2024-01-06T04:25:30;14.45;;;10.18;;
74674;SDS011;63200;48.810;12.352;2024-01-06T04:27:56;17.35;;;11.00;;
74674;SDS011;63200;48.810;12.352;2024-01-06T04:30:21;15.88;;;11.07;;
74674;SDS011;63200;48.810;12.352;2024-01-06T04:32:46;17.95;;;10.95;;
74674;SDS011;63200;48.810;12.352;2024-01-06T04:35:13;17.85;;;11.63;;
74674;SDS011;63200;48.810;12.352;2024-01-06T04:37:39;20.35;;;11.57;;
74674;SDS011;63200;48.810;12.352;2024-01-06T04:40:04;21.38;;;11.32;;
74674;SDS011;63200;48.810;12.352;2024-01-06T04:42:30;19.00;;;11.85;;
74674;SDS011;63200;48.810;12.352;2024-01-06T04:44:56;21.98;;;12.07;;
74674;SDS011;63200;48.810;12.352;2024-01-06T04:47:21;17.30;;;11.82;;
74674;SDS011;63200;48.810;12.352;2024-01-06T04:49:46;18.98;;;11.88;;
74674;SDS011;63200;48.810;12.352;2024-01-06T04:52:11;18.73;;;12.02;;
74674;SDS011;63200;48.810;12.352;2024-01-06T04:54:37;20.50;;;12.60;;
74674;SDS011;63200;48.810;12.352;2024-01-06T04:57:02;19.67;;;12.70;;
74674;SDS011;63200;48.810;12.352;2024-01-06T04:59:29;21.42;;;12.77;;
74674;SDS011;63200;48.810;12.352;2024-01-06T05:01:54;22.63;;;14.38;;
74674;SDS011;63200;48.810;12.352;2024-01-06T05:04:20;21.20;;;13.00;;
74674;SDS011;63200;48.810;12.352;2024-01-06T05:06:45;23.60;;;13.68;;
74674;SDS011;63200;48.810;12.352;2024-01-06T05:09:10;22.48;;;13.32;;
74674;SDS011;63200;48.810;12.352;2024-01-06T05:11:36;23.73;;;14.35;;
74674;SDS011;63200;48.810;12.352;2024-01-06T05:14:01;25.17;;;14.05;;
74674;SDS011;63200;48.810;12.352;2024-01-06T05:16:26;22.17;;;13.45;;
74674;SDS011;63200;48.810;12.352;2024-01-06T05:18:52;23.63;;;14.05;;
74674;SDS011;63200;48.810;12.352;2024-01-06T05:21:18;25.70;;;14.48;;
74674;SDS011;63200;48.810;12.352;2024-01-06T05:23:43;24.17;;;13.80;;
74674;SDS011;63200;48.810;12.352;2024-01-06T05:26:09;29.08;;;15.82;;
74674;SDS011;63200;48.810;12.352;2024-01-06T05:28:34;23.50;;;14.60;;
74674;SDS011;63200;48.810;12.352;2024-01-06T05:30:59;23.83;;;15.43;;
74674;SDS011;63200;48.810;12.352;2024-01-06T05:33:24;24.13;;;14.93;;
74674;SDS011;63200;48.810;12.352;2024-01-06T05:35:50;22.23;;;13.63;;
74674;SDS011;63200;48.810;12.352;2024-01-06T05:38:15;24.30;;;14.95;;
74674;SDS011;63200;48.810;12.352;2024-01-06T05:40:42;21.65;;;13.50;;
74674;SDS011;63200;48.810;12.352;2024-01-06T05:43:07;23.83;;;14.05;;
74674;SDS011;63200;48.810;12.352;2024-01-06T05:45:33;22.63;;;13.85;;
74674;SDS011;63200;48.810;12.352;2024-01-06T05:47:58;22.55;;;14.30;;
74674;SDS011;63200;48.810;12.352;2024-01-06T05:50:23;25.08;;;14.48;;
74674;SDS011;63200;48.810;12.352;2024-01-06T05:52:48;23.88;;;14.80;;
74674;SDS011;63200;48.810;12.352;2024-01-06T05:55:14;22.13;;;13.88;;
74674;SDS011;63200;48.810;12.352;2024-01-06T05:57:40;20.65;;;13.75;;
74674;SDS011;63200;48.810;12.352;2024-01-06T06:00:09;24.98;;;14.55;;
74674;SDS011;63200;48.810;12.352;2024-01-06T06:02:36;24.10;;;14.25;;
74674;SDS011;63200;48.810;12.352;2024-01-06T06:05:01;23.98;;;14.30;;
74674;SDS011;63200;48.810;12.352;2024-01-06T06:07:26;25.83;;;14.15;;
74674;SDS011;63200;48.810;12.352;2024-01-06T06:09:52;23.77;;;14.10;;
74674;SDS011;63200;48.810;12.352;2024-01-06T06:12:18;23.67;;;13.48;;
74674;SDS011;63200;48.810;12.352;2024-01-06T06:14:43;21.70;;;13.23;;
74674;SDS011;63200;48.810;12.352;2024-01-06T06:17:08;18.80;;;12.68;;
74674;SDS011;63200;48.810;12.352;2024-01-06T06:19:34;21.20;;;12.52;;
74674;SDS011;63200;48.810;12.352;2024-01-06T06:21:59;18.63;;;12.45;;
74674;SDS011;63200;48.810;12.352;2024-01-06T06:24:24;28.25;;;16.10;;
74674;SDS011;63200;48.810;12.352;2024-01-06T06:26:49;19.38;;;12.57;;
74674;SDS011;63200;48.810;12.352;2024-01-06T06:29:15;21.00;;;11.80;;
74674;SDS011;63200;48.810;12.352;2024-01-06T06:31:40;18.17;;;12.25;;
74674;SDS011;63200;48.810;12.352;2024-01-06T06:34:07;19.58;;;12.18;;
74674;SDS011;63200;48.810;12.352;2024-01-06T06:36:34;19.85;;;11.52;;
74674;SDS011;63200;48.810;12.352;2024-01-06T06:38:59;18.23;;;11.55;;
74674;SDS011;63200;48.810;12.352;2024-01-06T06:41:25;19.27;;;11.45;;
74674;SDS011;63200;48.810;12.352;2024-01-06T06:43:50;16.70;;;11.60;;
74674;SDS011;63200;48.810;12.352;2024-01-06T06:46:16;18.05;;;10.82;;
74674;SDS011;63200;48.810;12.352;2024-01-06T06:48:41;16.95;;;9.88;;
74674;SDS011;63200;48.810;12.352;2024-01-06T06:51:06;18.48;;;10.13;;
74674;SDS011;63200;48.810;12.352;2024-01-06T06:53:32;17.35;;;10.98;;
74674;SDS011;63200;48.810;12.352;2024-01-06T06:55:57;14.27;;;8.75;;
74674;SDS011;63200;48.810;12.352;2024-01-06T06:58:22;16.65;;;9.23;;
74674;SDS011;63200;48.810;12.352;2024-01-06T07:00:47;16.70;;;10.30;;
74674;SDS011;63200;48.810;12.352;2024-01-06T07:03:13;15.95;;;9.25;;
74674;SDS011;63200;48.810;12.352;2024-01-06T07:05:39;14.82;;;8.07;;
74674;SDS011;63200;48.810;12.352;2024-01-06T07:08:04;13.07;;;7.95;;
74674;SDS011;63200;48.810;12.352;2024-01-06T07:10:30;12.27;;;7.95;;
74674;SDS011;63200;48.810;12.352;2024-01-06T07:12:55;9.65;;;7.18;;
74674;SDS011;63200;48.810;12.352;2024-01-06T07:15:20;13.75;;;7.00;;
74674;SDS011;63200;48.810;12.352;2024-01-06T07:17:45;11.10;;;7.00;;
74674;SDS011;63200;48.810;12.352;2024-01-06T07:20:11;9.52;;;5.78;;
74674;SDS011;63200;48.810;12.352;2024-01-06T07:22:36;10.15;;;5.85;;
74674;SDS011;63200;48.810;12.352;2024-01-06T07:25:02;13.60;;;5.60;;
74674;SDS011;63200;48.810;12.352;2024-01-06T07:27:27;8.73;;;5.47;;
74674;SDS011;63200;48.810;12.352;2024-01-06T07:29:53;13.02;;;5.82;;
74674;SDS011;63200;48.810;12.352;2024-01-06T07:32:20;10.05;;;6.25;;
74674;SDS011;63200;48.810;12.352;2024-01-06T07:34:46;7.80;;;5.80;;
74674;SDS011;63200;48.810;12.352;2024-01-06T07:37:11;8.55;;;5.35;;
74674;SDS011;63200;48.810;12.352;2024-01-06T07:39:37;10.35;;;5.03;;
74674;SDS011;63200;48.810;12.352;2024-01-06T07:42:02;12.55;;;4.80;;
74674;SDS011;63200;48.810;12.352;2024-01-06T07:44:27;6.85;;;4.45;;
74674;SDS011;63200;48.810;12.352;2024-01-06T07:46:53;8.95;;;4.40;;
74674;SDS011;63200;48.810;12.352;2024-01-06T07:49:18;8.48;;;4.15;;
74674;SDS011;63200;48.810;12.352;2024-01-06T07:51:44;5.75;;;3.97;;
74674;SDS011;63200;48.810;12.352;2024-01-06T07:54:09;6.32;;;4.35;;
74674;SDS011;63200;48.810;12.352;2024-01-06T07:56:35;5.78;;;3.60;;
74674;SDS011;63200;48.810;12.352;2024-01-06T07:59:03;7.07;;;3.70;;
74674;SDS011;63200;48.810;12.352;2024-01-06T08:01:29;8.40;;;2.95;;
74674;SDS011;63200;48.810;12.352;2024-01-06T08:03:55;6.25;;;3.03;;
74674;SDS011;63200;48.810;12.352;2024-01-06T08:06:20;5.68;;;2.80;;
74674;SDS011;63200;48.810;12.352;2024-01-06T08:08:45;6.10;;;2.95;;
74674;SDS011;63200;48.810;12.352;2024-01-06T08:11:11;4.93;;;2.67;;
74674;SDS011;63200;48.810;12.352;2024-01-06T08:13:36;6.78;;;2.90;;
74674;SDS011;63200;48.810;12.352;2024-01-06T08:16:02;4.82;;;2.90;;
74674;SDS011;63200;48.810;12.352;2024-01-06T08:18:28;5.55;;;3.40;;
74674;SDS011;63200;48.810;12.352;2024-01-06T08:20:53;4.47;;;3.38;;
74674;SDS011;63200;48.810;12.352;2024-01-06T08:23:18;5.97;;;3.60;;
74674;SDS011;63200;48.810;12.352;2024-01-06T08:25:45;7.25;;;4.03;;
74674;SDS011;63200;48.810;12.352;2024-01-06T08:28:11;5.15;;;3.45;;
74674;SDS011;63200;48.810;12.352;2024-01-06T08:30:36;4.18;;;3.47;;
74674;SDS011;63200;48.810;12.352;2024-01-06T08:33:02;9.13;;;3.83;;
74674;SDS011;63200;48.810;12.352;2024-01-06T08:35:27;9.85;;;3.78;;
74674;SDS011;63200;48.810;12.352;2024-01-06T08:37:52;11.95;;;3.72;;
74674;SDS011;63200;48.810;12.352;2024-01-06T08:40:18;5.88;;;2.88;;
74674;SDS011;63200;48.810;12.352;2024-01-06T08:42:43;9.57;;;4.03;;
74674;SDS011;63200;48.810;12.352;2024-01-06T08:45:09;4.97;;;3.13;;
74674;SDS011;63200;48.810;12.352;2024-01-06T08:47:34;7.15;;;4.15;;
74674;SDS011;63200;48.810;12.352;2024-01-06T08:50:00;6.57;;;4.13;;
74674;SDS011;63200;48.810;12.352;2024-01-06T08:52:25;8.27;;;4.30;;
74674;SDS011;63200;48.810;12.352;2024-01-06T08:54:50;6.05;;;4.28;;
74674;SDS011;63200;48.810;12.352;2024-01-06T08:57:15;5.95;;;2.78;;
74674;SDS011;63200;48.810;12.352;2024-01-06T08:59:41;8.65;;;4.22;;
74674;SDS011;63200;48.810;12.352;2024-01-06T09:02:06;7.88;;;3.00;;
74674;SDS011;63200;48.810;12.352;2024-01-06T09:04:32;5.40;;;3.75;;
74674;SDS011;63200;48.810;12.352;2024-01-06T09:06:57;6.22;;;4.45;;
74674;SDS011;63200;48.810;12.352;2024-01-06T09:09:23;9.35;;;4.80;;
74674;SDS011;63200;48.810;12.352;2024-01-06T09:11:49;8.45;;;4.78;;
74674;SDS011;63200;48.810;12.352;2024-01-06T09:14:15;11.02;;;4.82;;
74674;SDS011;63200;48.810;12.352;2024-01-06T09:16:43;6.68;;;4.43;;
74674;SDS011;63200;48.810;12.352;2024-01-06T09:19:08;8.00;;;4.60;;
74674;SDS011;63200;48.810;12.352;2024-01-06T09:21:34;8.25;;;5.00;;
74674;SDS011;63200;48.810;12.352;2024-01-06T09:24:00;8.15;;;5.13;;
74674;SDS011;63200;48.810;12.352;2024-01-06T09:26:31;10.95;;;5.07;;
74674;SDS011;63200;48.810;12.352;2024-01-06T09:28:56;13.77;;;5.05;;
74674;SDS011;63200;48.810;12.352;2024-01-06T09:31:21;8.95;;;5.13;;
74674;SDS011;63200;48.810;12.352;2024-01-06T09:33:47;13.45;;;5.13;;
74674;SDS011;63200;48.810;12.352;2024-01-06T09:36:12;9.50;;;4.88;;
74674;SDS011;63200;48.810;12.352;2024-01-06T09:38:38;7.85;;;4.80;;
74674;SDS011;63200;48.810;12.352;2024-01-06T09:41:04;7.10;;;5.30;;
74674;SDS011;63200;48.810;12.352;2024-01-06T09:43:29;12.00;;;5.75;;
74674;SDS011;63200;48.810;12.352;2024-01-06T09:46:02;9.75;;;5.10;;
74674;SDS011;63200;48.810;12.352;2024-01-06T09:48:32;5.47;;;4.78;;
74674;SDS011;63200;48.810;12.352;2024-01-06T09:51:04;8.10;;;5.07;;
74674;SDS011;63200;48.810;12.352;2024-01-06T09:53:33;7.07;;;5.15;;
74674;SDS011;63200;48.810;12.352;2024-01-06T09:56:02;8.52;;;5.40;;
74674;SDS011;63200;48.810;12.352;2024-01-06T09:58:29;8.95;;;5.57;;
74674;SDS011;63200;48.810;12.352;2024-01-06T10:00:59;10.35;;;4.90;;
74674;SDS011;63200;48.810;12.352;2024-01-06T10:03:26;7.65;;;4.93;;
74674;SDS011;63200;48.810;12.352;2024-01-06T10:05:52;16.00;;;7.10;;
74674;SDS011;63200;48.810;12.352;2024-01-06T10:08:18;7.50;;;5.03;;
74674;SDS011;63200;48.810;12.352;2024-01-06T10:10:44;9.55;;;5.07;;
74674;SDS011;63200;48.810;12.352;2024-01-06T10:13:10;9.20;;;4.60;;
74674;SDS011;63200;48.810;12.352;2024-01-06T10:15:35;7.57;;;5.18;;
74674;SDS011;63200;48.810;12.352;2024-01-06T10:18:01;5.97;;;4.38;;
74674;SDS011;63200;48.810;12.352;2024-01-06T10:20:28;8.60;;;5.60;;
74674;SDS011;63200;48.810;12.352;2024-01-06T10:22:54;10.20;;;4.95;;
74674;SDS011;63200;48.810;12.352;2024-01-06T10:25:21;7.93;;;4.55;;
74674;SDS011;63200;48.810;12.352;2024-01-06T10:27:48;9.65;;;5.20;;
74674;SDS011;63200;48.810;12.352;2024-01-06T10:30:14;5.75;;;4.20;;
74674;SDS011;63200;48.810;12.352;2024-01-06T10:32:43;6.78;;;3.95;;
74674;SDS011;63200;48.810;12.352;2024-01-06T10:35:09;9.85;;;4.70;;
74674;SDS011;63200;48.810;12.352;2024-01-06T10:37:34;8.68;;;4.13;;
74674;SDS011;63200;48.810;12.352;2024-01-06T10:42:41;7.80;;;4.65;;
74674;SDS011;63200;48.810;12.352;2024-01-06T10:45:08;10.63;;;4.18;;
74674;SDS011;63200;48.810;12.352;2024-01-06T10:47:35;8.57;;;4.82;;
74674;SDS011;63200;48.810;12.352;2024-01-06T10:50:05;10.55;;;3.47;;
74674;SDS011;63200;48.810;12.352;2024-01-06T10:52:32;9.60;;;4.25;;
74674;SDS011;63200;48.810;12.352;2024-01-06T10:55:00;8.13;;;4.22;;
74674;SDS011;63200;48.810;12.352;2024-01-06T10:57:27;8.13;;;4.20;;
74674;SDS011;63200;48.810;12.352;2024-01-06T10:59:56;9.70;;;4.45;;
74674;SDS011;63200;48.810;12.352;2024-01-06T11:02:23;6.03;;;4.30;;
74674;SDS011;63200;48.810;12.352;2024-01-06T11:04:50;5.85;;;4.03;;
74674;SDS011;63200;48.810;12.352;2024-01-06T11:07:17;7.35;;;4.03;;
74674;SDS011;63200;48.810;12.352;2024-01-06T11:12:43;8.20;;;3.83;;
74674;SDS011;63200;48.810;12.352;2024-01-06T11:15:09;12.02;;;4.20;;
74674;SDS011;63200;48.810;12.352;2024-01-06T11:17:53;9.43;;;4.43;;
74674;SDS011;63200;48.810;12.352;2024-01-06T11:20:20;9.32;;;4.45;;
74674;SDS011;63200;48.810;12.352;2024-01-06T11:22:49;9.00;;;4.60;;
74674;SDS011;63200;48.810;12.352;2024-01-06T11:25:17;7.15;;;3.92;;
74674;SDS011;63200;48.810;12.352;2024-01-06T11:27:45;7.85;;;3.97;;
74674;SDS011;63200;48.810;12.352;2024-01-06T11:30:21;9.77;;;4.32;;
74674;SDS011;63200;48.810;12.352;2024-01-06T11:32:48;9.43;;;4.38;;
74674;SDS011;63200;48.810;12.352;2024-01-06T11:35:17;9.45;;;4.30;;
74674;SDS011;63200;48.810;12.352;2024-01-06T11:40:09;7.57;;;3.72;;
74674;SDS011;63200;48.810;12.352;2024-01-06T11:42:43;9.38;;;4.45;;
74674;SDS011;63200;48.810;12.352;2024-01-06T11:45:10;5.22;;;3.97;;
74674;SDS011;63200;48.810;12.352;2024-01-06T11:47:36;6.82;;;4.60;;
74674;SDS011;63200;48.810;12.352;2024-01-06T11:50:02;10.93;;;4.72;;
74674;SDS011;63200;48.810;12.352;2024-01-06T11:52:29;8.55;;;4.80;;
74674;SDS011;63200;48.810;12.352;2024-01-06T11:54:55;9.15;;;4.03;;
74674;SDS011;63200;48.810;12.352;2024-01-06T11:57:21;7.43;;;3.88;;
74674;SDS011;63200;48.810;12.352;2024-01-06T11:59:47;7.28;;;4.00;;
74674;SDS011;63200;48.810;12.352;2024-01-06T12:02:13;13.45;;;4.20;;
74674;SDS011;63200;48.810;12.352;2024-01-06T12:04:39;7.97;;;4.47;;
74674;SDS011;63200;48.810;12.352;2024-01-06T12:07:08;5.57;;;4.18;;
74674;SDS011;63200;48.810;12.352;2024-01-06T12:09:34;5.93;;;4.03;;
74674;SDS011;63200;48.810;12.352;2024-01-06T12:12:01;7.15;;;4.10;;
74674;SDS011;63200;48.810;12.352;2024-01-06T12:14:27;7.32;;;4.50;;
74674;SDS011;63200;48.810;12.352;2024-01-06T12:16:53;5.00;;;4.35;;
74674;SDS011;63200;48.810;12.352;2024-01-06T12:19:20;6.22;;;4.07;;
74674;SDS011;63200;48.810;12.352;2024-01-06T12:21:45;7.63;;;4.60;;
74674;SDS011;63200;48.810;12.352;2024-01-06T12:24:17;7.00;;;3.78;;
74674;SDS011;63200;48.810;12.352;2024-01-06T12:26:45;7.55;;;4.35;;
74674;SDS011;63200;48.810;12.352;2024-01-06T12:29:11;14.23;;;5.35;;
74674;SDS011;63200;48.810;12.352;2024-01-06T12:31:38;9.50;;;4.38;;
74674;SDS011;63200;48.810;12.352;2024-01-06T12:34:04;8.75;;;4.43;;
74674;SDS011;63200;48.810;12.352;2024-01-06T12:36:29;8.10;;;6.25;;
74674;SDS011;63200;48.810;12.352;2024-01-06T12:38:56;12.63;;;8.32;;
74674;SDS011;63200;48.810;12.352;2024-01-06T12:41:23;7.22;;;5.85;;
74674;SDS011;63200;48.810;12.352;2024-01-06T12:43:49;4.07;;;3.78;;
74674;SDS011;63200;48.810;12.352;2024-01-06T12:46:14;8.45;;;4.70;;
74674;SDS011;63200;48.810;12.352;2024-01-06T12:48:40;10.93;;;5.80;;
74674;SDS011;63200;48.810;12.352;2024-01-06T12:51:05;10.88;;;5.18;;
74674;SDS011;63200;48.810;12.352;2024-01-06T12:53:30;7.47;;;4.72;;
74674;SDS011;63200;48.810;12.352;2024-01-06T12:55:56;9.30;;;4.97;;
74674;SDS011;63200;48.810;12.352;2024-01-06T12:58:21;8.60;;;4.47;;
74674;SDS011;63200;48.810;12.352;2024-01-06T13:00:46;10.50;;;6.82;;
74674;SDS011;63200;48.810;12.352;2024-01-06T13:03:12;10.70;;;5.63;;
74674;SDS011;63200;48.810;12.352;2024-01-06T13:05:39;8.10;;;4.85;;
74674;SDS011;63200;48.810;12.352;2024-01-06T13:08:05;16.27;;;5.95;;
74674;SDS011;63200;48.810;12.352;2024-01-06T13:10:30;5.97;;;4.80;;
74674;SDS011;63200;48.810;12.352;2024-01-06T13:12:56;6.28;;;4.57;;
74674;SDS011;63200;48.810;12.352;2024-01-06T13:15:21;8.90;;;5.32;;
74674;SDS011;63200;48.810;12.352;2024-01-06T13:17:46;7.00;;;4.82;;
74674;SDS011;63200;48.810;12.352;2024-01-06T13:20:13;7.55;;;5.03;;
74674;SDS011;63200;48.810;12.352;2024-01-06T13:22:41;8.00;;;4.53;;
74674;SDS011;63200;48.810;12.352;2024-01-06T13:25:06;14.00;;;5.00;;
74674;SDS011;63200;48.810;12.352;2024-01-06T13:27:33;10.88;;;4.88;;
74674;SDS011;63200;48.810;12.352;2024-01-06T13:29:59;9.60;;;5.18;;
74674;SDS011;63200;48.810;12.352;2024-01-06T13:32:24;10.25;;;5.15;;
74674;SDS011;63200;48.810;12.352;2024-01-06T13:34:51;8.18;;;4.40;;
74674;SDS011;63200;48.810;12.352;2024-01-06T13:37:19;12.07;;;4.65;;
74674;SDS011;63200;48.810;12.352;2024-01-06T13:39:47;8.70;;;4.63;;
74674;SDS011;63200;48.810;12.352;2024-01-06T13:42:12;8.38;;;4.88;;
74674;SDS011;63200;48.810;12.352;2024-01-06T13:44:38;9.60;;;5.00;;
74674;SDS011;63200;48.810;12.352;2024-01-06T13:47:04;6.05;;;3.90;;
74674;SDS011;63200;48.810;12.352;2024-01-06T13:49:29;4.10;;;3.70;;
74674;SDS011;63200;48.810;12.352;2024-01-06T13:51:55;8.55;;;4.30;;
74674;SDS011;63200;48.810;12.352;2024-01-06T13:54:20;8.15;;;3.92;;
74674;SDS011;63200;48.810;12.352;2024-01-06T13:56:46;7.65;;;4.07;;
74674;SDS011;63200;48.810;12.352;2024-01-06T13:59:11;9.88;;;3.95;;
74674;SDS011;63200;48.810;12.352;2024-01-06T14:01:36;6.15;;;3.28;;
74674;SDS011;63200;48.810;12.352;2024-01-06T14:04:02;7.88;;;3.30;;
74674;SDS011;63200;48.810;12.352;2024-01-06T14:06:28;6.78;;;3.33;;
74674;SDS011;63200;48.810;12.352;2024-01-06T14:08:58;9.02;;;3.75;;
74674;SDS011;63200;48.810;12.352;2024-01-06T14:11:24;6.07;;;3.55;;
74674;SDS011;63200;48.810;12.352;2024-01-06T14:13:50;9.15;;;3.88;;
74674;SDS011;63200;48.810;12.352;2024-01-06T14:16:16;9.63;;;3.78;;
74674;SDS011;63200;48.810;12.352;2024-01-06T14:18:42;8.45;;;2.70;;
74674;SDS011;63200;48.810;12.352;2024-01-06T14:21:11;8.10;;;3.53;;